sensor_id;sensor_type;location;lat;lon;timestamp;pressure;altitude;pressure_sealevel;temperature;humidity
35758;BME280;21879;50.110;18.900;2024-03-08T00:06:04;99257.09;;;22.65;45.68
35758;BME280;21879;50.110;18.900;2024-03-08T00:16:10;99256.22;;;22.65;45.63
35758;BME280;21879;50.110;18.900;2024-03-08T00:26:16;99246.35;;;22.64;45.55
35758;BME280;21879;50.110;18.900;2024-03-08T00:36:22;99232.60;;;22.63;45.48
35758;BME280;21879;50.110;18.900;2024-03-08T00:46:29;99228.91;;;22.62;45.47
35758;BME280;21879;50.110;18.900;2024-03-08T00:56:35;99225.44;;;22.60;45.33
35758;BME280;21879;50.110;18.900;2024-03-08T01:06:43;99220.70;;;22.59;45.18
35758;BME280;21879;50.110;18.900;2024-03-08T01:16:51;99212.05;;;22.59;45.13
35758;BME280;21879;50.110;18.900;2024-03-08T01:26:58;99194.91;;;22.58;45.15
35758;BME280;21879;50.110;18.900;2024-03-08T01:37:04;99185.90;;;22.57;45.10
35758;BME280;21879;50.110;18.900;2024-03-08T01:47:11;99174.58;;;22.57;44.88
35758;BME280;21879;50.110;18.900;2024-03-08T01:57:16;99167.13;;;22.57;44.81
35758;BME280;21879;50.110;18.900;2024-03-08T02:07:23;99164.48;;;22.57;44.78
35758;BME280;21879;50.110;18.900;2024-03-08T02:17:29;99159.36;;;22.56;44.60
35758;BME280;21879;50.110;18.900;2024-03-08T02:27:34;99153.88;;;22.56;44.54
35758;BME280;21879;50.110;18.900;2024-03-08T02:37:40;99151.41;;;22.56;44.54
35758;BME280;21879;50.110;18.900;2024-03-08T02:47:46;99150.19;;;22.56;44.55
35758;BME280;21879;50.110;18.900;2024-03-08T02:57:53;99146.87;;;22.55;44.49
35758;BME280;21879;50.110;18.900;2024-03-08T03:07:59;99151.65;;;22.55;44.16
35758;BME280;21879;50.110;18.900;2024-03-08T03:18:06;99152.55;;;22.54;44.28
35758;BME280;21879;50.110;18.900;2024-03-08T03:28:13;99148.67;;;22.54;44.18
35758;BME280;21879;50.110;18.900;2024-03-08T03:38:22;99142.63;;;22.54;44.10
35758;BME280;21879;50.110;18.900;2024-03-08T03:48:30;99136.41;;;22.55;44.02
35758;BME280;21879;50.110;18.900;2024-03-08T03:58:36;99135.52;;;22.55;43.90
35758;BME280;21879;50.110;18.900;2024-03-08T04:08:42;99133.73;;;22.55;43.80
35758;BME280;21879;50.110;18.900;2024-03-08T04:18:47;99130.20;;;22.55;43.78
35758;BME280;21879;50.110;18.900;2024-03-08T04:28:53;99133.62;;;22.54;43.64
35758;BME280;21879;50.110;18.900;2024-03-08T04:38:59;99130.98;;;22.54;43.61
35758;BME280;21879;50.110;18.900;2024-03-08T04:49:05;99131.35;;;22.53;43.58
35758;BME280;21879;50.110;18.900;2024-03-08T04:59:11;99131.25;;;22.52;43.55
35758;BME280;21879;50.110;18.900;2024-03-08T05:09:18;99131.78;;;22.51;43.53
35758;BME280;21879;50.110;18.900;2024-03-08T05:19:24;99132.14;;;22.51;43.57
35758;BME280;21879;50.110;18.900;2024-03-08T05:29:29;99139.25;;;22.51;43.65
35758;BME280;21879;50.110;18.900;2024-03-08T05:39:35;99143.56;;;22.49;43.54
35758;BME280;21879;50.110;18.900;2024-03-08T05:49:40;99147.84;;;22.49;43.46
35758;BME280;21879;50.110;18.900;2024-03-08T05:59:48;99152.66;;;22.49;43.44
35758;BME280;21879;50.110;18.900;2024-03-08T06:09:54;99153.23;;;22.48;43.35
35758;BME280;21879;50.110;18.900;2024-03-08T06:19:59;99150.94;;;22.48;43.25
35758;BME280;21879;50.110;18.900;2024-03-08T06:30:06;99153.41;;;22.48;43.25
35758;BME280;21879;50.110;18.900;2024-03-08T06:40:14;99153.27;;;22.47;43.13
35758;BME280;21879;50.110;18.900;2024-03-08T06:50:19;99155.34;;;22.48;43.09
35758;BME280;21879;50.110;18.900;2024-03-08T07:00:25;99152.34;;;22.48;43.06
35758;BME280;21879;50.110;18.900;2024-03-08T07:10:33;99146.09;;;22.49;42.89
35758;BME280;21879;50.110;18.900;2024-03-08T07:20:39;99148.58;;;22.49;42.82
35758;BME280;21879;50.110;18.900;2024-03-08T07:30:45;99145.14;;;22.50;42.69
35758;BME280;21879;50.110;18.900;2024-03-08T07:41:06;99143.44;;;22.52;42.73
35758;BME280;21879;50.110;18.900;2024-03-08T07:51:11;99140.41;;;22.56;43.04
35758;BME280;21879;50.110;18.900;2024-03-08T08:01:17;99144.52;;;22.59;43.25
35758;BME280;21879;50.110;18.900;2024-03-08T08:11:25;99148.65;;;22.61;43.50
35758;BME280;21879;50.110;18.900;2024-03-08T08:21:32;99148.36;;;22.63;43.48
35758;BME280;21879;50.110;18.900;2024-03-08T08:31:37;99152.91;;;22.64;43.42
35758;BME280;21879;50.110;18.900;2024-03-08T08:41:43;99153.16;;;22.63;43.43
35758;BME280;21879;50.110;18.900;2024-03-08T08:51:51;99158.44;;;22.64;43.31
35758;BME280;21879;50.110;18.900;2024-03-08T09:02:02;99160.91;;;22.64;43.37
35758;BME280;21879;50.110;18.900;2024-03-08T09:12:08;99155.47;;;22.63;43.31
35758;BME280;21879;50.110;18.900;2024-03-08T09:22:14;99147.45;;;22.64;43.68
35758;BME280;21879;50.110;18.900;2024-03-08T09:32:19;99142.59;;;22.65;43.78
35758;BME280;21879;50.110;18.900;2024-03-08T09:42:27;99141.63;;;22.67;43.89
35758;BME280;21879;50.110;18.900;2024-03-08T09:52:33;99140.33;;;22.68;43.80
35758;BME280;21879;50.110;18.900;2024-03-08T10:02:38;99135.96;;;22.70;43.81
35758;BME280;21879;50.110;18.900;2024-03-08T10:12:44;99137.81;;;22.72;43.76
35758;BME280;21879;50.110;18.900;2024-03-08T10:22:50;99138.05;;;22.74;43.68
35758;BME280;21879;50.110;18.900;2024-03-08T10:33:10;99137.67;;;22.75;43.51
35758;BME280;21879;50.110;18.900;2024-03-08T10:43:18;99129.41;;;22.77;43.21
35758;BME280;21879;50.110;18.900;2024-03-08T10:53:31;99125.63;;;22.78;43.08
35758;BME280;21879;50.110;18.900;2024-03-08T11:03:54;99120.30;;;22.78;42.79
35758;BME280;21879;50.110;18.900;2024-03-08T11:14:00;99112.56;;;22.80;42.19
35758;BME280;21879;50.110;18.900;2024-03-08T11:24:08;99113.49;;;22.83;42.08
35758;BME280;21879;50.110;18.900;2024-03-08T11:34:31;99108.09;;;22.84;41.74
35758;BME280;21879;50.110;18.900;2024-03-08T11:44:37;99102.25;;;22.84;41.29
35758;BME280;21879;50.110;18.900;2024-03-08T11:54:53;99091.50;;;22.86;40.99
35758;BME280;21879;50.110;18.900;2024-03-08T12:05:02;99081.67;;;22.87;40.78
35758;BME280;21879;50.110;18.900;2024-03-08T12:15:08;99072.41;;;22.89;40.69
35758;BME280;21879;50.110;18.900;2024-03-08T12:25:15;99053.05;;;22.92;40.12
35758;BME280;21879;50.110;18.900;2024-03-08T12:35:22;99046.48;;;22.96;39.54
35758;BME280;21879;50.110;18.900;2024-03-08T12:45:29;99031.22;;;23.03;39.57
35758;BME280;21879;50.110;18.900;2024-03-08T12:55:34;99020.84;;;23.08;39.07
35758;BME280;21879;50.110;18.900;2024-03-08T13:05:40;99010.77;;;23.10;38.03
35758;BME280;21879;50.110;18.900;2024-03-08T13:15:47;99003.08;;;23.15;38.86
35758;BME280;21879;50.110;18.900;2024-03-08T13:25:53;98992.23;;;23.21;39.09
35758;BME280;21879;50.110;18.900;2024-03-08T13:35:59;98983.71;;;23.28;39.21
35758;BME280;21879;50.110;18.900;2024-03-08T13:46:09;98977.36;;;23.36;40.14
35758;BME280;21879;50.110;18.900;2024-03-08T13:56:15;98967.43;;;23.45;40.69
35758;BME280;21879;50.110;18.900;2024-03-08T14:06:21;98960.33;;;23.52;41.27
35758;BME280;21879;50.110;18.900;2024-03-08T14:16:30;98953.55;;;23.55;41.78
35758;BME280;21879;50.110;18.900;2024-03-08T14:26:35;98950.59;;;23.57;41.97
35758;BME280;21879;50.110;18.900;2024-03-08T14:36:42;98943.83;;;23.58;42.40
35758;BME280;21879;50.110;18.900;2024-03-08T14:46:49;98937.70;;;23.59;42.91
35758;BME280;21879;50.110;18.900;2024-03-08T14:56:54;98930.28;;;23.61;43.24
35758;BME280;21879;50.110;18.900;2024-03-08T15:07:01;98924.07;;;23.62;43.51
35758;BME280;21879;50.110;18.900;2024-03-08T15:17:10;98917.38;;;23.61;43.62
35758;BME280;21879;50.110;18.900;2024-03-08T15:27:21;98909.07;;;23.60;43.90
35758;BME280;21879;50.110;18.900;2024-03-08T15:37:28;98906.33;;;23.59;44.28
35758;BME280;21879;50.110;18.900;2024-03-08T15:47:34;98901.61;;;23.54;44.83
35758;BME280;21879;50.110;18.900;2024-03-08T15:57:41;98896.04;;;23.50;45.02
35758;BME280;21879;50.110;18.900;2024-03-08T16:07:46;98892.99;;;23.44;45.15
35758;BME280;21879;50.110;18.900;2024-03-08T16:17:52;98886.64;;;23.37;45.31
35758;BME280;21879;50.110;18.900;2024-03-08T16:27:57;98893.95;;;23.31;45.27
35758;BME280;21879;50.110;18.900;2024-03-08T16:38:03;98896.52;;;23.23;45.06
35758;BME280;21879;50.110;18.900;2024-03-08T16:48:09;98898.17;;;23.16;44.65
35758;BME280;21879;50.110;18.900;2024-03-08T16:58:15;98898.42;;;23.09;44.59
35758;BME280;21879;50.110;18.900;2024-03-08T17:08:21;98896.15;;;23.02;44.54
35758;BME280;21879;50.110;18.900;2024-03-08T17:18:27;98900.96;;;22.95;44.24
35758;BME280;21879;50.110;18.900;2024-03-08T17:28:33;98907.46;;;22.90;44.08
35758;BME280;21879;50.110;18.900;2024-03-08T17:38:42;98903.34;;;22.84;43.85
35758;BME280;21879;50.110;18.900;2024-03-08T17:48:52;98899.04;;;22.82;43.99
35758;BME280;21879;50.110;18.900;2024-03-08T17:58:59;98898.48;;;22.80;43.77
35758;BME280;21879;50.110;18.900;2024-03-08T18:09:07;98898.69;;;22.75;43.75
35758;BME280;21879;50.110;18.900;2024-03-08T18:19:14;98897.14;;;22.71;43.56
35758;BME280;21879;50.110;18.900;2024-03-08T18:29:23;98889.86;;;22.68;43.35
35758;BME280;21879;50.110;18.900;2024-03-08T18:39:29;98889.63;;;22.66;43.41
35758;BME280;21879;50.110;18.900;2024-03-08T18:49:34;98876.50;;;22.63;43.29
35758;BME280;21879;50.110;18.900;2024-03-08T18:59:40;98872.77;;;22.63;42.91
35758;BME280;21879;50.110;18.900;2024-03-08T19:09:47;98869.20;;;22.61;42.79
35758;BME280;21879;50.110;18.900;2024-03-08T19:19:55;98870.36;;;22.59;42.85
35758;BME280;21879;50.110;18.900;2024-03-08T19:30:00;98872.69;;;22.55;42.88
35758;BME280;21879;50.110;18.900;2024-03-08T19:40:11;98865.51;;;22.54;43.59
35758;BME280;21879;50.110;18.900;2024-03-08T19:50:23;98857.76;;;22.56;44.29
35758;BME280;21879;50.110;18.900;2024-03-08T20:00:30;98852.11;;;22.59;44.84
35758;BME280;21879;50.110;18.900;2024-03-08T20:10:38;98847.41;;;22.61;45.15
35758;BME280;21879;50.110;18.900;2024-03-08T20:20:44;98844.25;;;22.63;45.39
35758;BME280;21879;50.110;18.900;2024-03-08T20:30:53;98843.14;;;22.64;45.66
35758;BME280;21879;50.110;18.900;2024-03-08T20:40:59;98832.99;;;22.65;46.06
35758;BME280;21879;50.110;18.900;2024-03-08T20:51:06;98825.37;;;22.65;46.27
35758;BME280;21879;50.110;18.900;2024-03-08T21:01:12;98818.26;;;22.65;46.56
35758;BME280;21879;50.110;18.900;2024-03-08T21:11:18;98818.75;;;22.66;46.78
35758;BME280;21879;50.110;18.900;2024-03-08T21:21:24;98819.84;;;22.66;46.89
35758;BME280;21879;50.110;18.900;2024-03-08T21:31:30;98811.99;;;22.66;46.88
35758;BME280;21879;50.110;18.900;2024-03-08T21:41:36;98806.35;;;22.66;46.96
35758;BME280;21879;50.110;18.900;2024-03-08T21:51:41;98801.05;;;22.65;46.92
35758;BME280;21879;50.110;18.900;2024-03-08T22:01:51;98793.06;;;22.66;46.93
35758;BME280;21879;50.110;18.900;2024-03-08T22:11:57;98785.29;;;22.65;46.86
35758;BME280;21879;50.110;18.900;2024-03-08T22:22:02;98779.65;;;22.65;47.01
35758;BME280;21879;50.110;18.900;2024-03-08T22:32:08;98772.55;;;22.65;47.03
35758;BME280;21879;50.110;18.900;2024-03-08T22:42:15;98775.39;;;22.65;46.95
35758;BME280;21879;50.110;18.900;2024-03-08T22:52:21;98768.83;;;22.65;46.90
35758;BME280;21879;50.110;18.900;2024-03-08T23:02:27;98765.68;;;22.64;46.91
35758;BME280;21879;50.110;18.900;2024-03-08T23:12:33;98751.02;;;22.63;46.80
35758;BME280;21879;50.110;18.900;2024-03-08T23:22:40;98745.70;;;22.63;46.86
35758;BME280;21879;50.110;18.900;2024-03-08T23:32:50;98748.96;;;22.63;46.68
35758;BME280;21879;50.110;18.900;2024-03-08T23:42:58;98747.73;;;22.62;46.70
35758;BME280;21879;50.110;18.900;2024-03-08T23:53:04;98749.52;;;22.62;46.58
